Time;durP1;ratioP1;P1;durP2;ratioP2;P2;SDS_P1;SDS_P2;PMS_P1;PMS_P2;Temp;Humidity;BMP_temperature;BMP_pressure;BME280_temperature;BME280_humidity;BME280_pressure;Samples;Min_cycle;Max_cycle;Signal;HPM_P1;HPM_P2
2024/04/20 00:02:06;;;;;;;5.32;1.10;;;;;;;4.92;100.00;101174.28;5441738;26;19999;-71
2024/04/20 00:04:32;;;;;;;8.00;1.00;;;;;;;5.01;100.00;101176.16;5440956;26;20025;-71
2024/04/20 00:06:58;;;;;;;3.58;1.05;;;;;;;4.88;100.00;101182.19;5442821;26;20476;-72
2024/04/20 00:09:24;;;;;;;6.03;1.20;;;;;;;4.82;100.00;101179.22;5426877;26;20007;-71
2024/04/20 00:11:51;;;;;;;8.48;1.30;;;;;;;4.86;100.00;101183.25;5430094;26;20003;-71
2024/04/20 00:14:17;;;;;;;6.47;1.15;;;;;;;4.74;100.00;101186.66;5432458;26;20018;-71
2024/04/20 00:16:43;;;;;;;6.15;1.30;;;;;;;4.80;100.00;101188.78;5431273;26;20537;-72
2024/04/20 00:19:09;;;;;;;4.72;1.00;;;;;;;4.86;100.00;101193.50;5428367;26;20920;-71
2024/04/20 00:21:35;;;;;;;4.53;1.27;;;;;;;4.74;100.00;101196.94;5430452;26;20026;-71
2024/04/20 00:24:01;;;;;;;3.10;1.42;;;;;;;4.69;100.00;101202.41;5403649;26;20022;-72
2024/04/20 00:26:27;;;;;;;2.58;1.30;;;;;;;4.67;100.00;101204.25;5398121;26;20079;-74
2024/04/20 00:28:53;;;;;;;11.13;1.10;;;;;;;4.68;100.00;101198.19;5428103;26;20007;-72
2024/04/20 00:31:19;;;;;;;3.53;1.23;;;;;;;4.69;100.00;101204.97;5425617;26;20025;-71
2024/04/20 00:33:45;;;;;;;6.78;2.38;;;;;;;4.64;100.00;101205.28;5370123;26;20004;-71
2024/04/20 00:36:11;;;;;;;2.70;1.30;;;;;;;4.69;100.00;101199.84;5433092;26;19999;-71
2024/04/20 00:38:37;;;;;;;6.28;1.20;;;;;;;4.57;100.00;101204.06;5403389;26;20709;-72
2024/04/20 00:41:04;;;;;;;6.32;1.45;;;;;;;4.54;100.00;101208.59;5404217;26;20014;-71
2024/04/20 00:43:30;;;;;;;6.28;1.50;;;;;;;4.53;100.00;101212.13;5410021;26;21377;-72
2024/04/20 00:45:57;;;;;;;8.00;1.27;;;;;;;4.53;100.00;101212.13;5438192;26;20453;-72
2024/04/20 00:48:26;;;;;;;4.80;1.52;;;;;;;4.54;100.00;101212.00;5437430;26;20477;-71
2024/04/20 00:50:53;;;;;;;14.30;1.48;;;;;;;4.62;100.00;101216.63;5443399;26;20002;-71
2024/04/20 00:53:21;;;;;;;7.45;1.38;;;;;;;4.55;100.00;101212.81;5404423;26;20006;-72
2024/04/20 00:55:50;;;;;;;4.90;1.33;;;;;;;4.49;100.00;101226.91;5409715;26;20018;-71
2024/04/20 00:58:19;;;;;;;8.93;1.50;;;;;;;4.49;100.00;101224.34;5434557;26;20015;-71
2024/04/20 01:00:46;;;;;;;6.78;1.88;;;;;;;4.50;100.00;101225.97;5439717;26;20084;-71
2024/04/20 01:03:13;;;;;;;5.55;1.20;;;;;;;4.43;100.00;101229.91;5440062;26;20015;-71
2024/04/20 01:05:39;;;;;;;5.05;1.33;;;;;;;4.31;100.00;101234.13;5433797;26;20011;-71
2024/04/20 01:08:06;;;;;;;5.30;1.13;;;;;;;4.34;100.00;101228.78;5406703;26;20014;-72
2024/04/20 01:10:32;;;;;;;2.47;0.88;;;;;;;4.44;100.00;101231.53;5378250;26;20015;-72
2024/04/20 01:13:08;;;;;;;5.45;1.20;;;;;;;4.33;100.00;101236.59;5432147;26;23443;-71
2024/04/20 01:15:34;;;;;;;7.95;2.17;;;;;;;4.39;100.00;101237.00;5377611;26;20412;-71
2024/04/20 01:18:01;;;;;;;3.83;1.42;;;;;;;4.31;100.00;101241.00;5436636;26;20084;-71
2024/04/20 01:20:27;;;;;;;9.43;1.15;;;;;;;4.25;100.00;101240.50;5407368;26;20513;-72
2024/04/20 01:22:53;;;;;;;9.23;2.58;;;;;;;4.24;100.00;101235.47;5409944;26;20387;-72
2024/04/20 01:25:23;;;;;;;6.25;1.20;;;;;;;4.29;100.00;101241.94;5409162;26;20047;-71
2024/04/20 01:27:49;;;;;;;10.02;1.77;;;;;;;4.31;100.00;101248.72;5439748;26;20038;-71
2024/04/20 01:30:16;;;;;;;5.80;1.40;;;;;;;4.29;100.00;101249.66;5434702;26;20025;-71
2024/04/20 01:32:42;;;;;;;4.18;1.52;;;;;;;4.24;100.00;101259.41;5443749;26;20006;-72
2024/04/20 01:35:09;;;;;;;7.65;1.83;;;;;;;4.31;100.00;101262.34;5430234;26;20029;-72
2024/04/20 01:37:35;;;;;;;6.07;1.10;;;;;;;4.32;100.00;101260.63;5441460;26;20681;-71
2024/04/20 01:40:01;;;;;;;6.13;1.25;;;;;;;4.32;100.00;101263.19;5443000;26;20010;-71
2024/04/20 01:42:27;;;;;;;3.33;1.17;;;;;;;4.37;100.00;101271.38;5441501;26;20030;-72
2024/04/20 01:44:53;;;;;;;3.75;1.20;;;;;;;4.27;100.00;101268.63;5415533;26;20014;-71
2024/04/20 01:47:19;;;;;;;4.88;1.40;;;;;;;4.41;100.00;101275.41;5407674;26;20473;-71
2024/04/20 01:49:45;;;;;;;6.32;1.65;;;;;;;4.44;100.00;101273.44;5406945;26;20010;-72
2024/04/20 01:52:11;;;;;;;9.60;3.47;;;;;;;4.41;100.00;101265.97;5405715;26;20102;-71
2024/04/20 01:54:37;;;;;;;4.78;1.30;;;;;;;4.52;100.00;101274.66;5407708;26;20041;-71
2024/04/20 01:57:04;;;;;;;4.38;1.20;;;;;;;4.45;100.00;101275.09;5403810;26;20007;-71
2024/04/20 01:59:29;;;;;;;4.82;1.30;;;;;;;4.48;100.00;101284.31;5444412;26;20014;-72
2024/04/20 02:01:57;;;;;;;5.43;1.83;;;;;;;4.52;100.00;101278.06;5436267;26;20552;-72
2024/04/20 02:04:24;;;;;;;4.78;1.63;;;;;;;4.54;100.00;101296.78;5441509;26;20025;-72
2024/04/20 02:06:50;;;;;;;5.80;1.30;;;;;;;4.43;100.00;101289.78;5441428;26;20015;-71
2024/04/20 02:09:17;;;;;;;3.72;1.52;;;;;;;4.46;100.00;101299.03;5440225;26;20008;-70
2024/04/20 02:11:43;;;;;;;4.13;1.50;;;;;;;4.55;100.00;101298.41;5437544;26;20002;-71
2024/04/20 02:14:09;;;;;;;1.80;1.30;;;;;;;4.46;100.00;101299.03;5411926;26;20010;-73
2024/04/20 02:16:34;;;;;;;5.18;1.65;;;;;;;4.56;100.00;101296.63;5433807;26;20006;-71
2024/04/20 02:19:01;;;;;;;4.15;1.55;;;;;;;4.58;100.00;101290.50;5404185;26;20473;-71
2024/04/20 02:21:27;;;;;;;2.60;1.35;;;;;;;4.57;100.00;101299.13;5408410;26;20077;-71
2024/04/20 02:23:53;;;;;;;6.07;1.70;;;;;;;4.63;100.00;101303.00;5444552;26;20012;-72
2024/04/20 02:26:19;;;;;;;3.67;1.27;;;;;;;4.61;100.00;101302.28;5442815;26;20018;-71
2024/04/20 02:28:45;;;;;;;2.38;1.50;;;;;;;4.62;100.00;101298.81;5404228;26;20003;-71
2024/04/20 02:31:11;;;;;;;7.25;1.30;;;;;;;4.51;100.00;101299.53;5405364;26;20025;-71
2024/04/20 02:33:37;;;;;;;3.95;1.58;;;;;;;4.59;100.00;101307.53;5447283;26;20007;-71
2024/04/20 02:36:03;;;;;;;6.78;1.88;;;;;;;4.58;100.00;101303.34;5408702;26;20013;-71
2024/04/20 02:38:29;;;;;;;4.80;1.42;;;;;;;4.68;100.00;101318.94;5449024;26;20111;-71
2024/04/20 02:40:55;;;;;;;6.70;1.67;;;;;;;4.67;100.00;101317.28;5408866;26;20630;-71
2024/04/20 02:43:21;;;;;;;5.05;1.63;;;;;;;4.67;100.00;101315.56;5440919;26;20014;-71
2024/04/20 02:45:48;;;;;;;5.18;1.70;;;;;;;4.70;100.00;101314.50;5413956;26;20025;-71
2024/04/20 02:48:14;;;;;;;7.63;1.58;;;;;;;4.63;100.00;101321.84;5413622;26;20006;-71
2024/04/20 02:50:40;;;;;;;7.65;1.30;;;;;;;4.71;100.00;101333.31;5441326;26;20038;-71
2024/04/20 02:53:06;;;;;;;2.47;1.25;;;;;;;4.70;100.00;101321.41;5407485;26;20010;-71
2024/04/20 02:55:32;;;;;;;6.22;1.58;;;;;;;4.75;100.00;101329.63;5410110;26;20008;-71
2024/04/20 02:57:58;;;;;;;7.68;1.70;;;;;;;4.85;100.00;101323.72;5436446;26;20615;-72
2024/04/20 03:00:24;;;;;;;12.65;3.08;;;;;;;4.74;100.00;101326.22;5409638;26;20019;-71
2024/04/20 03:02:50;;;;;;;6.88;2.22;;;;;;;4.77;100.00;101333.72;5406547;26;20014;-71
2024/04/20 03:05:16;;;;;;;7.40;1.98;;;;;;;4.77;100.00;101336.31;5400204;26;20002;-71
2024/04/20 03:07:42;;;;;;;3.45;1.40;;;;;;;4.75;100.00;101333.00;5442439;26;20002;-71
2024/04/20 03:10:08;;;;;;;6.03;1.55;;;;;;;4.70;100.00;101335.06;5409084;26;20003;-71
2024/04/20 03:12:34;;;;;;;6.80;1.50;;;;;;;4.82;100.00;101341.94;5442500;26;20012;-71
2024/04/20 03:14:59;;;;;;;6.45;1.50;;;;;;;4.75;100.00;101345.88;5419574;26;20635;-74
2024/04/20 03:17:26;;;;;;;4.40;1.60;;;;;;;4.69;100.00;101343.72;5441784;26;20505;-71
2024/04/20 03:19:52;;;;;;;11.07;1.50;;;;;;;4.66;100.00;101351.63;5408123;26;19998;-72
2024/04/20 03:22:18;;;;;;;6.85;1.92;;;;;;;4.78;100.00;101349.97;5434535;26;20465;-71
2024/04/20 03:24:44;;;;;;;7.13;1.95;;;;;;;4.81;100.00;101342.06;5437197;26;20010;-73
2024/04/20 03:27:10;;;;;;;4.30;1.35;;;;;;;4.82;100.00;101357.38;5410886;26;20017;-71
2024/04/20 03:29:36;;;;;;;6.15;1.80;;;;;;;4.78;100.00;101355.09;5408118;26;20011;-72
2024/04/20 03:32:02;;;;;;;4.97;2.35;;;;;;;4.71;100.00;101356.44;5442072;26;20003;-72
2024/04/20 03:34:28;;;;;;;8.35;1.40;;;;;;;4.89;100.00;101373.19;5445399;26;20019;-72
2024/04/20 03:36:54;;;;;;;7.05;2.25;;;;;;;4.68;100.00;101371.13;5411157;26;20021;-72
2024/04/20 03:39:22;;;;;;;6.75;1.67;;;;;;;4.85;100.00;101370.00;5402059;26;20023;-72
2024/04/20 03:41:48;;;;;;;6.38;1.48;;;;;;;4.85;100.00;101370.00;5405309;26;20021;-71
2024/04/20 03:44:14;;;;;;;5.80;1.40;;;;;;;4.79;100.00;101374.75;5438521;26;20647;-71
2024/04/20 03:46:40;;;;;;;6.05;1.40;;;;;;;4.82;100.00;101372.78;5444888;26;20018;-71
2024/04/20 03:49:06;;;;;;;4.35;1.42;;;;;;;4.79;100.00;101383.25;5438559;26;20021;-71
2024/04/20 03:51:32;;;;;;;5.78;1.77;;;;;;;4.80;100.00;101386.66;5439821;26;20006;-74
2024/04/20 03:54:02;;;;;;;6.35;2.22;;;;;;;4.71;100.00;101393.25;5409708;26;20459;-71
2024/04/20 03:56:28;;;;;;;5.97;1.40;;;;;;;4.80;100.00;101405.47;5429513;26;20008;-71
2024/04/20 03:58:54;;;;;;;7.03;1.20;;;;;;;4.63;100.00;101401.47;5415443;26;20090;-72
2024/04/20 04:01:20;;;;;;;5.50;1.75;;;;;;;4.67;100.00;101407.19;5412828;26;20003;-72
2024/04/20 04:03:46;;;;;;;4.40;1.00;;;;;;;4.62;100.00;101409.28;5417582;26;20054;-71
2024/04/20 04:06:12;;;;;;;5.05;1.45;;;;;;;4.65;100.00;101414.19;5440340;26;20074;-72
2024/04/20 04:08:38;;;;;;;2.63;1.10;;;;;;;4.61;100.00;101421.28;5407485;26;20030;-71
2024/04/20 04:11:04;;;;;;;5.63;1.35;;;;;;;4.64;100.00;101420.28;5434053;26;20011;-71
2024/04/20 04:13:30;;;;;;;4.63;1.20;;;;;;;4.67;100.00;101417.47;5409483;26;20014;-71
2024/04/20 04:15:56;;;;;;;3.53;1.40;;;;;;;4.65;100.00;101415.03;5406322;26;20369;-72
2024/04/20 04:18:22;;;;;;;3.40;1.20;;;;;;;4.72;100.00;101412.03;5407365;26;20010;-71
2024/04/20 04:20:48;;;;;;;2.90;1.40;;;;;;;4.63;100.00;101424.59;5409866;26;20039;-71
2024/04/20 04:23:14;;;;;;;6.90;1.20;;;;;;;4.68;100.00;101419.13;5405653;26;20423;-71
2024/04/20 04:25:40;;;;;;;7.85;2.28;;;;;;;4.65;100.00;101430.44;5441788;26;20003;-74
2024/04/20 04:28:06;;;;;;;7.32;1.48;;;;;;;4.75;100.00;101429.84;5442802;26;20010;-71
2024/04/20 04:30:32;;;;;;;5.20;1.10;;;;;;;4.64;100.00;101436.50;5434440;26;20042;-71
2024/04/20 04:32:58;;;;;;;5.25;1.30;;;;;;;4.73;100.00;101444.50;5435439;26;20027;-71
2024/04/20 04:35:26;;;;;;;6.88;1.40;;;;;;;4.79;100.00;101441.56;5432667;26;21791;-71
2024/04/20 04:37:52;;;;;;;5.45;1.63;;;;;;;4.70;100.00;101437.84;5443371;26;20449;-72
2024/04/20 04:40:19;;;;;;;5.32;1.40;;;;;;;4.69;100.00;101441.34;5439336;26;20106;-72
2024/04/20 04:42:46;;;;;;;3.67;1.02;;;;;;;4.68;100.00;101455.91;5442400;26;20007;-71
2024/04/20 04:45:11;;;;;;;3.97;1.13;;;;;;;4.66;100.00;101447.50;5438428;26;20072;-71
2024/04/20 04:47:37;;;;;;;8.00;1.58;;;;;;;4.73;100.00;101453.06;5439856;26;20011;-71
2024/04/20 04:50:04;;;;;;;7.88;1.30;;;;;;;4.78;100.00;101453.56;5432645;26;20126;-73
2024/04/20 04:52:30;;;;;;;4.97;1.25;;;;;;;4.73;100.00;101457.34;5441941;26;20469;-72
2024/04/20 04:54:56;;;;;;;6.15;1.27;;;;;;;4.78;100.00;101457.88;5384014;26;20018;-71
2024/04/20 04:57:22;;;;;;;4.30;1.02;;;;;;;4.74;100.00;101464.16;5409431;26;20010;-71
2024/04/20 04:59:48;;;;;;;2.60;0.80;;;;;;;4.70;100.00;101460.16;5400768;26;20502;-71
2024/04/20 05:02:14;;;;;;;4.38;1.55;;;;;;;4.79;100.00;101467.25;5432463;26;21566;-71
2024/04/20 05:04:41;;;;;;;1.92;0.82;;;;;;;4.72;100.00;101477.09;5406118;26;20010;-72
2024/04/20 05:07:07;;;;;;;5.55;2.47;;;;;;;4.78;100.00;101465.59;5403261;26;20135;-71
2024/04/20 05:09:33;;;;;;;7.25;1.73;;;;;;;4.82;100.00;101479.88;5405235;26;20818;-71
2024/04/20 05:12:00;;;;;;;5.05;1.40;;;;;;;4.77;100.00;101484.50;5410593;26;20022;-71
2024/04/20 05:14:27;;;;;;;6.75;1.00;;;;;;;4.74;100.00;101487.28;5408592;26;21430;-71
2024/04/20 05:16:53;;;;;;;6.30;1.92;;;;;;;4.73;100.00;101486.47;5408875;26;20018;-71
2024/04/20 05:19:19;;;;;;;4.70;1.55;;;;;;;4.73;100.00;101493.31;5407105;26;20110;-71
2024/04/20 05:21:45;;;;;;;7.90;1.10;;;;;;;4.76;100.00;101491.38;5399123;26;20014;-71
2024/04/20 05:24:11;;;;;;;8.05;1.10;;;;;;;4.83;100.00;101497.75;5425423;26;20007;-71
2024/04/20 05:26:36;;;;;;;2.75;1.17;;;;;;;4.86;100.00;101496.75;5442970;26;20018;-72
2024/04/20 05:29:02;;;;;;;2.47;0.77;;;;;;;4.83;100.00;101502.09;5405976;26;20011;-71
2024/04/20 05:31:29;;;;;;;4.40;1.08;;;;;;;4.78;100.00;101504.13;5399607;26;20008;-71
2024/04/20 05:33:55;;;;;;;6.55;2.25;;;;;;;4.79;100.00;101504.03;5387219;26;20019;-72
2024/04/20 05:36:21;;;;;;;4.90;1.10;;;;;;;4.86;100.00;101510.44;5409091;26;20003;-73
2024/04/20 05:38:47;;;;;;;3.63;1.15;;;;;;;4.94;100.00;101509.09;5443531;26;20007;-71
2024/04/20 05:41:13;;;;;;;4.22;1.00;;;;;;;4.98;100.00;101519.06;5408386;26;20026;-71
2024/04/20 05:43:38;;;;;;;3.20;0.80;;;;;;;4.92;100.00;101516.91;5433455;26;20007;-71
2024/04/20 05:46:05;;;;;;;3.85;1.13;;;;;;;5.07;100.00;101521.03;5406521;26;20010;-70
2024/04/20 05:48:33;;;;;;;5.88;0.93;;;;;;;5.06;100.00;101523.69;5401893;26;20016;-72
2024/04/20 05:50:59;;;;;;;5.18;0.80;;;;;;;5.14;100.00;101521.44;5437783;26;20014;-71
2024/04/20 05:53:25;;;;;;;4.57;0.93;;;;;;;5.11;100.00;101528.53;5440968;26;20019;-73
2024/04/20 05:55:51;;;;;;;12.07;2.03;;;;;;;5.23;100.00;101536.22;5408267;26;20006;-72
2024/04/20 05:58:17;;;;;;;2.15;0.70;;;;;;;5.19;100.00;101539.13;5431366;26;20015;-71
2024/04/20 06:00:43;;;;;;;10.02;1.63;;;;;;;5.22;100.00;101541.50;5379792;26;20006;-71
2024/04/20 06:03:10;;;;;;;8.23;1.52;;;;;;;5.17;100.00;101544.38;5443178;26;20011;-72
2024/04/20 06:05:40;;;;;;;11.93;1.35;;;;;;;5.30;100.00;101546.94;5435930;26;20481;-71
2024/04/20 06:08:06;;;;;;;11.70;1.77;;;;;;;5.32;100.00;101546.84;5436623;26;20469;-72
2024/04/20 06:10:32;;;;;;;4.65;1.20;;;;;;;5.23;100.00;101550.84;5409857;26;20010;-71
2024/04/20 06:12:58;;;;;;;9.27;1.20;;;;;;;5.22;100.00;101554.34;5437181;26;20803;-72
2024/04/20 06:15:24;;;;;;;7.68;1.02;;;;;;;5.36;100.00;101556.00;5442462;26;20011;-72
2024/04/20 06:17:50;;;;;;;11.20;1.27;;;;;;;5.41;100.00;101559.91;5413680;26;19999;-72
2024/04/20 06:20:17;;;;;;;6.82;1.00;;;;;;;5.39;100.00;101563.50;5413550;26;20015;-72
2024/04/20 06:22:43;;;;;;;9.13;1.10;;;;;;;5.41;100.00;101565.03;5410654;26;20007;-73
2024/04/20 06:25:11;;;;;;;4.53;0.90;;;;;;;5.47;100.00;101574.09;5410179;26;20003;-71
2024/04/20 06:27:37;;;;;;;8.35;1.50;;;;;;;5.32;100.00;101575.94;5390779;26;20003;-71
2024/04/20 06:30:04;;;;;;;10.90;1.63;;;;;;;5.37;100.00;101578.19;5407407;26;19999;-71
2024/04/20 06:32:30;;;;;;;12.40;1.08;;;;;;;5.54;100.00;101580.47;5409674;26;20038;-71
2024/04/20 06:34:56;;;;;;;6.15;1.10;;;;;;;5.41;100.00;101580.47;5432380;26;20028;-71
2024/04/20 06:37:22;;;;;;;11.02;1.05;;;;;;;5.51;100.00;101585.81;5441676;26;20449;-71
2024/04/20 06:39:48;;;;;;;8.55;1.08;;;;;;;5.57;100.00;101582.81;5403390;26;20007;-71
2024/04/20 06:42:14;;;;;;;7.45;0.85;;;;;;;5.47;100.00;101592.91;5411417;26;20007;-72
2024/04/20 06:44:40;;;;;;;7.85;1.75;;;;;;;5.56;100.00;101596.63;5437570;26;20002;-71
2024/04/20 06:47:06;;;;;;;9.10;0.85;;;;;;;5.57;100.00;101597.44;5411033;26;20002;-71
2024/04/20 06:49:32;;;;;;;10.18;1.13;;;;;;;5.49;100.00;101600.53;5438214;26;20009;-71
2024/04/20 06:51:58;;;;;;;10.50;2.25;;;;;;;5.59;100.00;101613.59;5431850;26;20015;-72
2024/04/20 06:54:24;;;;;;;6.80;1.15;;;;;;;5.61;100.00;101604.88;5440775;26;20350;-72
2024/04/20 06:56:50;;;;;;;15.48;4.35;;;;;;;5.64;100.00;101609.78;5412052;26;20003;-73
2024/04/20 06:59:17;;;;;;;7.80;1.15;;;;;;;5.69;100.00;101616.38;5444335;26;20465;-71
2024/04/20 07:01:43;;;;;;;7.22;1.33;;;;;;;5.69;100.00;101614.66;5445181;26;20643;-71
2024/04/20 07:04:09;;;;;;;4.07;0.80;;;;;;;5.65;100.00;101618.31;5444499;26;20007;-71
2024/04/20 07:06:35;;;;;;;6.60;0.95;;;;;;;5.78;100.00;101623.47;5444773;26;20010;-71
2024/04/20 07:09:01;;;;;;;9.13;1.10;;;;;;;5.72;100.00;101632.44;5409232;26;20513;-71
2024/04/20 07:11:27;;;;;;;6.35;1.60;;;;;;;5.88;100.00;101623.66;5406867;26;20043;-72
2024/04/20 07:13:55;;;;;;;10.40;0.90;;;;;;;5.95;100.00;101632.63;5438964;26;20010;-71
2024/04/20 07:16:22;;;;;;;7.72;1.13;;;;;;;5.89;100.00;101627.91;5408246;26;20007;-72
2024/04/20 07:18:48;;;;;;;11.93;1.08;;;;;;;5.89;100.00;101633.84;5434286;26;20044;-71
2024/04/20 07:21:14;;;;;;;6.32;0.75;;;;;;;5.90;100.00;101635.50;5444727;26;20481;-71
2024/04/20 07:23:40;;;;;;;6.38;0.93;;;;;;;5.83;100.00;101650.53;5443336;26;19995;-71
2024/04/20 07:26:07;;;;;;;2.97;0.90;;;;;;;5.79;100.00;101643.97;5392307;26;20002;-71
2024/04/20 07:28:34;;;;;;;7.82;0.98;;;;;;;6.00;100.00;101646.84;5409678;26;20007;-72
2024/04/20 07:31:00;;;;;;;6.15;1.67;;;;;;;6.08;100.00;101658.38;5411828;26;20058;-71
2024/04/20 07:33:26;;;;;;;6.88;1.10;;;;;;;5.99;100.00;101659.81;5416512;26;20007;-72
2024/04/20 07:35:52;;;;;;;6.18;1.25;;;;;;;6.02;100.00;101663.00;5442538;26;20018;-71
2024/04/20 07:38:18;;;;;;;7.47;0.98;;;;;;;5.97;100.00;101664.25;5443950;26;19991;-71
2024/04/20 07:40:44;;;;;;;4.50;1.08;;;;;;;6.07;100.00;101660.13;5439104;26;20014;-71
2024/04/20 07:43:10;;;;;;;10.05;1.80;;;;;;;6.12;100.00;101662.38;5439317;26;22338;-72
2024/04/20 07:45:36;;;;;;;4.93;0.88;;;;;;;6.10;100.00;101674.53;5444071;26;21551;-71
2024/04/20 07:48:04;;;;;;;2.35;0.70;;;;;;;6.03;100.00;101674.97;5412913;26;20383;-71
2024/04/20 07:50:30;;;;;;;12.48;1.45;;;;;;;6.02;100.00;101682.78;5440460;26;19999;-71
2024/04/20 07:52:56;;;;;;;5.55;0.68;;;;;;;6.16;100.00;101689.56;5444556;26;20007;-72
2024/04/20 07:55:21;;;;;;;10.98;1.00;;;;;;;6.32;100.00;101687.59;5409829;26;19999;-71
2024/04/20 07:57:47;;;;;;;4.18;0.80;;;;;;;6.41;100.00;101681.78;5407733;26;20003;-72
2024/04/20 08:00:14;;;;;;;8.45;1.60;;;;;;;6.47;100.00;101690.03;5437740;26;23112;-71
2024/04/20 08:02:40;;;;;;;9.00;0.85;;;;;;;6.50;100.00;101694.97;5410349;26;20018;-72
2024/04/20 08:05:06;;;;;;;3.05;0.60;;;;;;;6.75;100.00;101699.22;5436214;26;20010;-71
2024/04/20 08:07:36;;;;;;;7.63;1.25;;;;;;;6.91;100.00;101693.78;5413410;26;20022;-71
2024/04/20 08:10:02;;;;;;;3.65;0.65;;;;;;;6.91;100.00;101704.09;5432255;26;20081;-72
2024/04/20 08:12:28;;;;;;;7.60;1.60;;;;;;;6.96;100.00;101702.03;5438192;26;20456;-71
2024/04/20 08:14:54;;;;;;;3.83;0.63;;;;;;;6.89;100.00;101711.94;5426918;26;20007;-72
2024/04/20 08:17:20;;;;;;;5.35;0.70;;;;;;;6.73;99.28;101711.41;5437052;26;20020;-72
2024/04/20 08:19:46;;;;;;;4.63;0.68;;;;;;;6.75;98.64;101710.34;5443022;26;20361;-72
2024/04/20 08:22:12;;;;;;;7.50;0.98;;;;;;;6.88;99.90;101719.81;5408473;26;20528;-72
2024/04/20 08:24:38;;;;;;;9.93;0.80;;;;;;;6.91;99.29;101722.16;5436570;26;20019;-72
2024/04/20 08:27:04;;;;;;;5.28;0.88;;;;;;;7.00;100.00;101724.88;5435185;26;20022;-72
2024/04/20 08:29:32;;;;;;;8.90;0.80;;;;;;;7.24;100.00;101731.81;5434840;26;20438;-72
2024/04/20 08:31:58;;;;;;;6.70;1.40;;;;;;;7.21;98.54;101730.28;5432767;26;20338;-72
2024/04/20 08:34:24;;;;;;;4.45;0.57;;;;;;;7.14;95.18;101739.38;5400584;26;20018;-72
2024/04/20 08:36:50;;;;;;;6.45;1.08;;;;;;;7.22;96.97;101731.91;5440892;26;20468;-71
2024/04/20 08:39:16;;;;;;;10.98;1.02;;;;;;;7.30;97.69;101738.28;5438262;26;20471;-72
2024/04/20 08:42:08;;;;;;;7.93;1.13;;;;;;;7.39;98.27;101735.84;5439974;26;20322;-72
2024/04/20 08:44:35;;;;;;;9.67;1.20;;;;;;;7.32;97.43;101741.56;5395278;26;20453;-71
2024/04/20 08:47:03;;;;;;;6.65;0.93;;;;;;;7.32;96.87;101750.13;5407428;26;20011;-72
2024/04/20 08:49:31;;;;;;;6.00;1.08;;;;;;;7.29;98.06;101752.94;5438544;26;20513;-72
2024/04/20 08:51:57;;;;;;;7.88;0.95;;;;;;;7.29;98.46;101758.09;5430978;26;20018;-71
2024/04/20 08:54:23;;;;;;;9.27;1.15;;;;;;;7.21;99.77;101773.28;5434951;26;20003;-71
2024/04/20 08:56:49;;;;;;;6.80;1.27;;;;;;;7.19;100.00;101770.81;5409234;26;20006;-72
2024/04/20 08:59:15;;;;;;;9.27;1.20;;;;;;;7.17;100.00;101770.09;5431277;26;20003;-72
2024/04/20 09:01:41;;;;;;;6.57;0.90;;;;;;;7.10;100.00;101780.97;5438770;26;20014;-72
2024/04/20 09:04:08;;;;;;;10.95;1.17;;;;;;;7.01;100.00;101777.31;5437227;26;20034;-72
2024/04/20 09:06:35;;;;;;;7.30;1.30;;;;;;;7.14;100.00;101785.81;5407057;26;20007;-71
2024/04/20 09:09:04;;;;;;;10.20;1.00;;;;;;;7.00;100.00;101775.66;5405678;26;19999;-72
2024/04/20 09:11:31;;;;;;;7.97;1.15;;;;;;;6.92;100.00;101785.69;5437586;26;20007;-71
2024/04/20 09:13:58;;;;;;;7.68;1.95;;;;;;;7.07;100.00;101778.63;5439005;26;20004;-71
2024/04/20 09:16:24;;;;;;;5.70;1.30;;;;;;;7.08;100.00;101788.00;5410183;26;20047;-71
2024/04/20 09:18:50;;;;;;;10.25;1.15;;;;;;;7.20;100.00;101782.78;5438098;26;20333;-72
2024/04/20 09:21:16;;;;;;;7.47;1.40;;;;;;;7.34;100.00;101786.94;5400769;26;20045;-72
2024/04/20 09:23:43;;;;;;;5.95;1.20;;;;;;;7.41;100.00;101780.41;5409303;26;20461;-72
2024/04/20 09:26:11;;;;;;;6.45;1.35;;;;;;;7.66;100.00;101777.81;5398869;26;20337;-71
2024/04/20 09:28:38;;;;;;;7.28;1.25;;;;;;;7.86;100.00;101777.16;5442661;26;20011;-72
2024/04/20 09:31:04;;;;;;;8.63;1.20;;;;;;;8.09;100.00;101778.00;5380128;26;20138;-71
2024/04/20 09:33:30;;;;;;;7.45;1.10;;;;;;;8.38;100.00;101780.97;5410900;26;20078;-72
2024/04/20 09:35:56;;;;;;;5.57;1.30;;;;;;;8.30;99.67;101782.47;5401944;26;20453;-72
2024/04/20 09:38:22;;;;;;;13.00;1.27;;;;;;;8.02;97.83;101776.00;5440104;26;20031;-71
2024/04/20 09:40:52;;;;;;;6.13;1.20;;;;;;;7.96;99.87;101777.28;5378322;26;22308;-72
2024/04/20 09:43:22;;;;;;;7.00;1.00;;;;;;;7.81;98.26;101781.84;5407510;26;20073;-72
2024/04/20 09:45:50;;;;;;;6.90;1.40;;;;;;;7.74;99.24;101778.06;5401196;26;20007;-72
2024/04/20 09:48:23;;;;;;;5.55;1.45;;;;;;;7.84;99.60;101783.38;5435132;26;20084;-72
2024/04/20 09:50:54;;;;;;;6.80;1.23;;;;;;;7.91;99.87;101779.38;5444297;26;20414;-72
2024/04/20 09:53:33;;;;;;;5.80;1.15;;;;;;;8.02;100.00;101787.16;5444367;26;20006;-71
2024/04/20 09:56:02;;;;;;;8.27;1.48;;;;;;;7.97;98.27;101778.94;5435346;26;20411;-71
2024/04/20 09:58:30;;;;;;;3.47;1.20;;;;;;;7.81;97.33;101784.41;5412171;26;20399;-71
2024/04/20 10:00:57;;;;;;;9.70;1.10;;;;;;;7.63;100.00;101793.50;5376093;26;20000;-71
2024/04/20 10:03:24;;;;;;;4.68;1.30;;;;;;;7.66;98.39;101795.88;5442979;26;20524;-70
2024/04/20 10:05:50;;;;;;;4.65;0.90;;;;;;;7.62;99.65;101790.13;5411959;26;20083;-71
2024/04/20 10:08:17;;;;;;;7.38;1.15;;;;;;;7.59;100.00;101791.16;5438743;26;20024;-71
2024/04/20 10:10:45;;;;;;;7.63;1.45;;;;;;;7.65;100.00;101778.72;5434629;26;20084;-71
2024/04/20 10:13:14;;;;;;;12.23;2.63;;;;;;;7.96;100.00;101774.69;5404289;26;20346;-72
2024/04/20 10:15:45;;;;;;;6.75;1.20;;;;;;;8.47;99.05;101778.63;5408850;26;20007;-72
2024/04/20 10:18:11;;;;;;;11.32;1.42;;;;;;;9.20;95.54;101763.47;5439353;26;20006;-72
2024/04/20 10:20:38;;;;;;;4.68;1.30;;;;;;;9.67;92.65;101766.53;5437255;26;20688;-72
2024/04/20 10:23:18;;;;;;;7.10;1.30;;;;;;;9.86;87.48;101771.00;5410653;26;20006;-73
2024/04/20 10:25:53;;;;;;;10.63;1.60;;;;;;;10.01;84.62;101763.72;5407485;26;19999;-72
2024/04/20 10:28:35;;;;;;;7.60;1.20;;;;;;;10.24;81.55;101765.19;5440484;26;20095;-73
2024/04/20 10:31:02;;;;;;;5.65;1.27;;;;;;;10.26;82.82;101757.28;5407101;26;20018;-72
2024/04/20 10:33:31;;;;;;;9.00;1.20;;;;;;;10.06;82.39;101764.97;5444172;26;20037;-72
2024/04/20 10:35:58;;;;;;;7.53;1.15;;;;;;;9.89;83.05;101763.81;5444873;26;20019;-73
2024/04/20 10:38:30;;;;;;;9.80;1.45;;;;;;;9.71;84.22;101767.91;5418524;26;20006;-74
2024/04/20 10:40:57;;;;;;;5.43;1.15;;;;;;;9.34;88.34;101769.16;5382190;26;21563;-72
2024/04/20 10:43:25;;;;;;;7.13;1.17;;;;;;;9.26;90.21;101773.31;5413382;26;20083;-73
2024/04/20 10:46:01;;;;;;;6.07;1.30;;;;;;;9.49;91.13;101767.09;5446884;26;20007;-73
2024/04/20 10:48:28;;;;;;;6.90;1.08;;;;;;;9.50;86.04;101778.28;5440339;26;20067;-72
2024/04/20 10:51:02;;;;;;;7.70;1.00;;;;;;;9.73;85.39;101789.31;5439953;26;20498;-73
2024/04/20 10:53:28;;;;;;;3.47;0.98;;;;;;;9.55;90.98;101795.06;5440586;26;20075;-74
2024/04/20 10:55:56;;;;;;;4.65;1.35;;;;;;;9.11;86.94;101791.69;5415456;26;20665;-72
2024/04/20 10:58:23;;;;;;;5.00;0.85;;;;;;;8.95;89.12;101796.47;5380196;26;20003;-72
2024/04/20 11:00:49;;;;;;;7.38;0.77;;;;;;;8.76;86.18;101803.06;5440337;26;20003;-72
2024/04/20 11:03:15;;;;;;;8.45;1.20;;;;;;;9.07;90.70;101805.00;5405093;26;20021;-72
2024/04/20 11:05:52;;;;;;;7.70;1.25;;;;;;;9.22;88.45;101808.97;5411101;26;20013;-74
2024/04/20 11:08:18;;;;;;;2.88;0.82;;;;;;;9.41;90.02;101797.13;5415538;26;20006;-72
2024/04/20 11:10:51;;;;;;;6.25;1.00;;;;;;;9.33;88.70;101793.38;5442701;26;20456;-72
2024/04/20 11:13:17;;;;;;;8.02;1.20;;;;;;;9.76;88.67;101796.84;5436061;26;20091;-72
2024/04/20 11:15:46;;;;;;;5.38;1.25;;;;;;;9.98;87.02;101798.47;5443284;26;20007;-72
2024/04/20 11:18:16;;;;;;;5.03;1.17;;;;;;;10.23;82.32;101792.06;5411777;26;20468;-73
2024/04/20 11:20:42;;;;;;;7.78;1.48;;;;;;;10.19;78.76;101782.06;5403475;26;20018;-73
2024/04/20 11:23:08;;;;;;;7.25;1.20;;;;;;;10.20;81.02;101781.13;5414448;26;20015;-72
2024/04/20 11:25:35;;;;;;;7.93;0.82;;;;;;;10.46;82.99;101781.56;5384917;26;20091;-73